sensor_id;sensor_type;location;lat;lon;timestamp;pressure;altitude;pressure_sealevel;temperature;humidity
33404;BME280;19751;40.274;18.268;2024-03-17T00:00:21;101494.66;;;12.36;100.00
33404;BME280;19751;40.274;18.268;2024-03-17T00:02:47;101484.09;;;12.27;100.00
33404;BME280;19751;40.274;18.268;2024-03-17T00:05:13;101490.03;;;12.22;100.00
33404;BME280;19751;40.274;18.268;2024-03-17T00:07:39;101494.13;;;12.18;100.00
33404;BME280;19751;40.274;18.268;2024-03-17T00:10:05;101488.72;;;12.18;100.00
33404;BME280;19751;40.274;18.268;2024-03-17T00:12:35;101492.47;;;12.17;100.00
33404;BME280;19751;40.274;18.268;2024-03-17T00:15:01;101497.50;;;12.20;100.00
33404;BME280;19751;40.274;18.268;2024-03-17T00:17:26;101494.41;;;12.23;100.00
33404;BME280;19751;40.274;18.268;2024-03-17T00:19:51;101499.53;;;12.18;100.00
33404;BME280;19751;40.274;18.268;2024-03-17T00:22:17;101500.97;;;12.06;100.00
33404;BME280;19751;40.274;18.268;2024-03-17T00:24:43;101499.31;;;12.05;100.00
33404;BME280;19751;40.274;18.268;2024-03-17T00:27:08;101508.59;;;12.02;100.00
33404;BME280;19751;40.274;18.268;2024-03-17T00:29:34;101504.56;;;11.98;100.00
33404;BME280;19751;40.274;18.268;2024-03-17T00:32:00;101503.75;;;11.98;100.00
33404;BME280;19751;40.274;18.268;2024-03-17T00:34:25;101501.22;;;11.96;100.00
33404;BME280;19751;40.274;18.268;2024-03-17T00:36:51;101505.25;;;12.00;100.00
33404;BME280;19751;40.274;18.268;2024-03-17T00:39:19;101505.72;;;12.04;100.00
33404;BME280;19751;40.274;18.268;2024-03-17T00:41:44;101508.25;;;12.05;100.00
33404;BME280;19751;40.274;18.268;2024-03-17T00:44:10;101508.44;;;12.04;100.00
33404;BME280;19751;40.274;18.268;2024-03-17T00:46:36;101499.66;;;12.02;100.00
33404;BME280;19751;40.274;18.268;2024-03-17T00:49:01;101505.25;;;12.00;100.00
33404;BME280;19751;40.274;18.268;2024-03-17T00:51:27;101505.06;;;12.02;100.00
33404;BME280;19751;40.274;18.268;2024-03-17T00:53:52;101499.50;;;12.03;100.00
33404;BME280;19751;40.274;18.268;2024-03-17T00:56:17;101503.53;;;12.07;100.00
33404;BME280;19751;40.274;18.268;2024-03-17T00:58:43;101503.88;;;12.04;100.00
33404;BME280;19751;40.274;18.268;2024-03-17T01:01:10;101497.72;;;12.10;100.00
33404;BME280;19751;40.274;18.268;2024-03-17T01:03:36;101500.84;;;12.22;100.00
33404;BME280;19751;40.274;18.268;2024-03-17T01:06:05;101497.03;;;12.31;100.00
33404;BME280;19751;40.274;18.268;2024-03-17T01:08:30;101492.78;;;12.37;100.00
33404;BME280;19751;40.274;18.268;2024-03-17T01:10:56;101489.75;;;12.40;100.00
33404;BME280;19751;40.274;18.268;2024-03-17T01:13:21;101496.63;;;12.42;100.00
33404;BME280;19751;40.274;18.268;2024-03-17T01:15:51;101495.44;;;12.45;100.00
33404;BME280;19751;40.274;18.268;2024-03-17T01:18:17;101487.31;;;12.45;100.00
33404;BME280;19751;40.274;18.268;2024-03-17T01:20:43;101474.28;;;12.49;100.00
33404;BME280;19751;40.274;18.268;2024-03-17T01:23:09;101483.59;;;12.46;100.00
33404;BME280;19751;40.274;18.268;2024-03-17T01:25:34;101488.50;;;12.42;100.00
33404;BME280;19751;40.274;18.268;2024-03-17T01:28:04;101478.44;;;12.36;100.00
33404;BME280;19751;40.274;18.268;2024-03-17T01:30:30;101478.94;;;12.40;100.00
33404;BME280;19751;40.274;18.268;2024-03-17T01:32:55;101474.66;;;12.46;100.00
33404;BME280;19751;40.274;18.268;2024-03-17T01:35:21;101472.03;;;12.52;100.00
33404;BME280;19751;40.274;18.268;2024-03-17T01:37:47;101472.69;;;12.54;100.00
33404;BME280;19751;40.274;18.268;2024-03-17T01:40:13;101471.94;;;12.60;100.00
33404;BME280;19751;40.274;18.268;2024-03-17T01:42:40;101469.72;;;12.64;100.00
33404;BME280;19751;40.274;18.268;2024-03-17T01:45:28;101461.44;;;12.65;100.00
33404;BME280;19751;40.274;18.268;2024-03-17T01:47:55;101468.31;;;12.68;100.00
33404;BME280;19751;40.274;18.268;2024-03-17T01:50:32;101462.75;;;12.69;100.00
33404;BME280;19751;40.274;18.268;2024-03-17T01:52:59;101467.97;;;12.71;100.00
33404;BME280;19751;40.274;18.268;2024-03-17T01:55:26;101460.53;;;12.73;100.00
33404;BME280;19751;40.274;18.268;2024-03-17T01:57:53;101454.25;;;12.73;100.00
33404;BME280;19751;40.274;18.268;2024-03-17T02:00:18;101457.16;;;12.71;100.00
33404;BME280;19751;40.274;18.268;2024-03-17T02:02:44;101458.19;;;12.70;100.00
33404;BME280;19751;40.274;18.268;2024-03-17T02:05:10;101458.19;;;12.70;100.00
33404;BME280;19751;40.274;18.268;2024-03-17T02:07:35;101461.91;;;12.69;100.00
33404;BME280;19751;40.274;18.268;2024-03-17T02:10:01;101454.81;;;12.68;100.00
33404;BME280;19751;40.274;18.268;2024-03-17T02:12:29;101453.81;;;12.69;100.00
33404;BME280;19751;40.274;18.268;2024-03-17T02:14:59;101457.50;;;12.68;100.00
33404;BME280;19751;40.274;18.268;2024-03-17T02:17:24;101458.53;;;12.67;100.00
33404;BME280;19751;40.274;18.268;2024-03-17T02:19:51;101457.50;;;12.68;100.00
33404;BME280;19751;40.274;18.268;2024-03-17T02:22:19;101459.56;;;12.66;100.00
33404;BME280;19751;40.274;18.268;2024-03-17T02:24:45;101462.28;;;12.66;100.00
33404;BME280;19751;40.274;18.268;2024-03-17T02:27:10;101461.25;;;12.67;100.00
33404;BME280;19751;40.274;18.268;2024-03-17T02:29:36;101467.47;;;12.67;100.00
33404;BME280;19751;40.274;18.268;2024-03-17T02:32:08;101463.19;;;12.58;100.00
33404;BME280;19751;40.274;18.268;2024-03-17T02:34:34;101464.22;;;12.57;100.00
33404;BME280;19751;40.274;18.268;2024-03-17T02:37:00;101459.00;;;12.56;100.00
33404;BME280;19751;40.274;18.268;2024-03-17T02:39:27;101452.59;;;12.57;100.00
33404;BME280;19751;40.274;18.268;2024-03-17T02:42:06;101452.59;;;12.57;100.00
33404;BME280;19751;40.274;18.268;2024-03-17T02:44:32;101453.22;;;12.59;100.00
33404;BME280;19751;40.274;18.268;2024-03-17T02:46:59;101449.97;;;12.63;100.00
33404;BME280;19751;40.274;18.268;2024-03-17T02:49:25;101455.19;;;12.65;100.00
33404;BME280;19751;40.274;18.268;2024-03-17T02:51:55;101449.41;;;12.68;100.00
33404;BME280;19751;40.274;18.268;2024-03-17T02:54:21;101452.94;;;12.68;100.00
33404;BME280;19751;40.274;18.268;2024-03-17T02:56:48;101450.06;;;12.70;100.00
33404;BME280;19751;40.274;18.268;2024-03-17T02:59:14;101449.88;;;12.72;100.00
33404;BME280;19751;40.274;18.268;2024-03-17T03:01:39;101453.41;;;12.72;100.00
33404;BME280;19751;40.274;18.268;2024-03-17T03:04:05;101458.81;;;12.72;100.00
33404;BME280;19751;40.274;18.268;2024-03-17T03:06:33;101454.44;;;12.71;100.00
33404;BME280;19751;40.274;18.268;2024-03-17T03:08:58;101455.28;;;12.72;100.00
33404;BME280;19751;40.274;18.268;2024-03-17T03:11:24;101459.66;;;12.73;100.00
33404;BME280;19751;40.274;18.268;2024-03-17T03:13:49;101456.13;;;12.72;100.00
33404;BME280;19751;40.274;18.268;2024-03-17T03:16:15;101455.84;;;12.67;100.00
33404;BME280;19751;40.274;18.268;2024-03-17T03:18:41;101457.50;;;12.68;100.00
33404;BME280;19751;40.274;18.268;2024-03-17T03:21:06;101454.44;;;12.71;100.00
33404;BME280;19751;40.274;18.268;2024-03-17T03:23:33;101460.69;;;12.72;100.00
33404;BME280;19751;40.274;18.268;2024-03-17T03:25:59;101462.56;;;12.71;100.00
33404;BME280;19751;40.274;18.268;2024-03-17T03:28:26;101457.16;;;12.71;100.00
33404;BME280;19751;40.274;18.268;2024-03-17T03:30:52;101462.34;;;12.73;100.00
33404;BME280;19751;40.274;18.268;2024-03-17T03:33:19;101451.19;;;12.76;100.00
33404;BME280;19751;40.274;18.268;2024-03-17T03:35:44;101453.69;;;12.77;100.00
33404;BME280;19751;40.274;18.268;2024-03-17T03:38:11;101452.84;;;12.77;100.00
33404;BME280;19751;40.274;18.268;2024-03-17T03:40:36;101460.13;;;12.76;100.00
33404;BME280;19751;40.274;18.268;2024-03-17T03:43:02;101458.91;;;12.79;100.00
33404;BME280;19751;40.274;18.268;2024-03-17T03:45:27;101454.56;;;12.78;100.00
33404;BME280;19751;40.274;18.268;2024-03-17T03:47:53;101459.28;;;12.76;100.00
33404;BME280;19751;40.274;18.268;2024-03-17T03:50:22;101460.13;;;12.76;100.00
33404;BME280;19751;40.274;18.268;2024-03-17T03:52:48;101464.34;;;12.79;100.00
33404;BME280;19751;40.274;18.268;2024-03-17T03:55:16;101463.09;;;12.81;100.00
33404;BME280;19751;40.274;18.268;2024-03-17T03:57:42;101468.50;;;12.81;100.00
33404;BME280;19751;40.274;18.268;2024-03-17T04:00:08;101464.81;;;12.82;100.00
33404;BME280;19751;40.274;18.268;2024-03-17T04:02:50;101461.44;;;12.80;100.00
33404;BME280;19751;40.274;18.268;2024-03-17T04:05:16;101469.38;;;12.82;100.00
33404;BME280;19751;40.274;18.268;2024-03-17T04:07:43;101465.63;;;12.83;100.00
33404;BME280;19751;40.274;18.268;2024-03-17T04:10:10;101467.50;;;12.82;100.00
33404;BME280;19751;40.274;18.268;2024-03-17T04:12:35;101475.22;;;12.85;100.00
33404;BME280;19751;40.274;18.268;2024-03-17T04:15:01;101476.91;;;12.86;100.00
33404;BME280;19751;40.274;18.268;2024-03-17T04:17:27;101474.03;;;12.88;100.00
33404;BME280;19751;40.274;18.268;2024-03-17T04:19:54;101476.53;;;12.89;100.00
33404;BME280;19751;40.274;18.268;2024-03-17T04:22:20;101487.72;;;12.86;100.00
33404;BME280;19751;40.274;18.268;2024-03-17T04:24:47;101492.75;;;12.89;100.00
33404;BME280;19751;40.274;18.268;2024-03-17T04:27:19;101488.00;;;12.91;100.00
33404;BME280;19751;40.274;18.268;2024-03-17T04:29:49;101493.22;;;12.93;100.00
33404;BME280;19751;40.274;18.268;2024-03-17T04:32:14;101502.38;;;12.92;100.00
33404;BME280;19751;40.274;18.268;2024-03-17T04:34:40;101499.84;;;12.90;100.00
33404;BME280;19751;40.274;18.268;2024-03-17T04:37:05;101509.63;;;12.91;100.00
33404;BME280;19751;40.274;18.268;2024-03-17T04:39:31;101502.38;;;12.92;100.00
33404;BME280;19751;40.274;18.268;2024-03-17T04:41:57;101507.50;;;12.87;100.00
33404;BME280;19751;40.274;18.268;2024-03-17T04:44:22;101510.75;;;12.82;100.00
33404;BME280;19751;40.274;18.268;2024-03-17T04:46:48;101507.03;;;12.83;100.00
33404;BME280;19751;40.274;18.268;2024-03-17T04:49:14;101508.88;;;12.83;100.00
33404;BME280;19751;40.274;18.268;2024-03-17T04:51:39;101515.13;;;12.83;100.00
33404;BME280;19751;40.274;18.268;2024-03-17T04:54:05;101512.44;;;12.83;100.00
33404;BME280;19751;40.274;18.268;2024-03-17T04:56:32;101520.75;;;12.82;100.00
33404;BME280;19751;40.274;18.268;2024-03-17T04:58:58;101521.19;;;12.85;100.00
33404;BME280;19751;40.274;18.268;2024-03-17T05:01:23;101519.34;;;12.86;100.00
33404;BME280;19751;40.274;18.268;2024-03-17T05:03:52;101520.19;;;12.86;100.00
33404;BME280;19751;40.274;18.268;2024-03-17T05:06:18;101525.38;;;12.88;100.00
33404;BME280;19751;40.274;18.268;2024-03-17T05:08:43;101522.88;;;12.86;100.00
33404;BME280;19751;40.274;18.268;2024-03-17T05:11:09;101533.03;;;12.84;100.00
33404;BME280;19751;40.274;18.268;2024-03-17T05:13:36;101530.25;;;12.78;100.00
33404;BME280;19751;40.274;18.268;2024-03-17T05:16:04;101531.72;;;12.80;100.00
33404;BME280;19751;40.274;18.268;2024-03-17T05:18:29;101536.75;;;12.83;100.00
33404;BME280;19751;40.274;18.268;2024-03-17T05:21:02;101535.56;;;12.86;100.00
33404;BME280;19751;40.274;18.268;2024-03-17T05:23:30;101535.16;;;12.89;100.00
33404;BME280;19751;40.274;18.268;2024-03-17T05:25:56;101538.53;;;12.91;100.00
33404;BME280;19751;40.274;18.268;2024-03-17T05:28:23;101534.44;;;12.95;100.00
33404;BME280;19751;40.274;18.268;2024-03-17T05:30:49;101535.28;;;12.96;100.00
33404;BME280;19751;40.274;18.268;2024-03-17T05:33:17;101533.63;;;12.94;100.00
33404;BME280;19751;40.274;18.268;2024-03-17T05:35:56;101539.84;;;12.95;100.00
33404;BME280;19751;40.274;18.268;2024-03-17T05:38:22;101539.03;;;12.94;100.00
33404;BME280;19751;40.274;18.268;2024-03-17T05:41:00;101536.97;;;12.97;100.00
33404;BME280;19751;40.274;18.268;2024-03-17T05:43:27;101536.59;;;13.00;100.00
33404;BME280;19751;40.274;18.268;2024-03-17T05:45:54;101540.59;;;13.04;100.00
33404;BME280;19751;40.274;18.268;2024-03-17T05:48:20;101535.47;;;13.09;100.00
33404;BME280;19751;40.274;18.268;2024-03-17T05:50:46;101535.94;;;13.12;100.00
33404;BME280;19751;40.274;18.268;2024-03-17T05:53:11;101543.50;;;13.17;100.00
33404;BME280;19751;40.274;18.268;2024-03-17T05:55:37;101535.66;;;13.22;100.00
33404;BME280;19751;40.274;18.268;2024-03-17T05:58:03;101542.38;;;13.26;100.00
33404;BME280;19751;40.274;18.268;2024-03-17T06:00:29;101543.53;;;13.32;100.00
33404;BME280;19751;40.274;18.268;2024-03-17T06:02:56;101537.53;;;13.36;100.00
33404;BME280;19751;40.274;18.268;2024-03-17T06:05:21;101533.44;;;13.40;100.00
33404;BME280;19751;40.274;18.268;2024-03-17T06:07:48;101533.03;;;13.43;100.00
33404;BME280;19751;40.274;18.268;2024-03-17T06:10:13;101533.72;;;13.46;100.00
33404;BME280;19751;40.274;18.268;2024-03-17T06:12:39;101539.75;;;13.48;100.00
33404;BME280;19751;40.274;18.268;2024-03-17T06:15:04;101536.31;;;13.54;100.00
33404;BME280;19751;40.274;18.268;2024-03-17T06:17:31;101533.22;;;13.57;100.00
33404;BME280;19751;40.274;18.268;2024-03-17T06:19:56;101543.66;;;13.60;100.00
33404;BME280;19751;40.274;18.268;2024-03-17T06:22:23;101536.19;;;13.62;100.00
33404;BME280;19751;40.274;18.268;2024-03-17T06:24:49;101541.03;;;13.66;100.00
33404;BME280;19751;40.274;18.268;2024-03-17T06:27:15;101543.16;;;13.71;100.00
33404;BME280;19751;40.274;18.268;2024-03-17T06:29:41;101546.13;;;13.76;100.00
33404;BME280;19751;40.274;18.268;2024-03-17T06:32:08;101548.47;;;13.79;100.00
33404;BME280;19751;40.274;18.268;2024-03-17T06:34:33;101554.34;;;13.83;100.00
33404;BME280;19751;40.274;18.268;2024-03-17T06:36:59;101556.47;;;13.87;100.00
33404;BME280;19751;40.274;18.268;2024-03-17T06:39:25;101563.19;;;13.91;100.00
33404;BME280;19751;40.274;18.268;2024-03-17T06:41:51;101560.94;;;13.95;100.00
33404;BME280;19751;40.274;18.268;2024-03-17T06:44:17;101568.69;;;13.98;100.00
33404;BME280;19751;40.274;18.268;2024-03-17T06:46:42;101573.06;;;13.99;100.00
33404;BME280;19751;40.274;18.268;2024-03-17T06:49:09;101575.56;;;14.01;100.00
33404;BME280;19751;40.274;18.268;2024-03-17T06:51:34;101571.88;;;14.02;100.00
33404;BME280;19751;40.274;18.268;2024-03-17T06:54:01;101576.25;;;14.03;100.00
33404;BME280;19751;40.274;18.268;2024-03-17T06:56:26;101575.19;;;14.04;100.00
33404;BME280;19751;40.274;18.268;2024-03-17T06:58:51;101581.66;;;14.03;100.00
33404;BME280;19751;40.274;18.268;2024-03-17T07:01:17;101577.44;;;14.00;100.00
33404;BME280;19751;40.274;18.268;2024-03-17T07:03:42;101583.06;;;13.99;100.00
33404;BME280;19751;40.274;18.268;2024-03-17T07:06:09;101584.75;;;14.00;100.00
33404;BME280;19751;40.274;18.268;2024-03-17T07:08:35;101596.63;;;13.99;100.00
33404;BME280;19751;40.274;18.268;2024-03-17T07:11:05;101612.59;;;13.93;100.00
33404;BME280;19751;40.274;18.268;2024-03-17T07:13:36;101611.69;;;13.86;100.00
33404;BME280;19751;40.274;18.268;2024-03-17T07:16:04;101612.06;;;13.83;100.00
33404;BME280;19751;40.274;18.268;2024-03-17T07:18:31;101612.88;;;13.84;100.00
33404;BME280;19751;40.274;18.268;2024-03-17T07:21:01;101610.84;;;13.86;100.00
33404;BME280;19751;40.274;18.268;2024-03-17T07:23:30;101605.88;;;13.89;100.00
33404;BME280;19751;40.274;18.268;2024-03-17T07:26:00;101607.38;;;13.92;100.00
33404;BME280;19751;40.274;18.268;2024-03-17T07:28:26;101607.81;;;13.96;100.00
33404;BME280;19751;40.274;18.268;2024-03-17T07:30:56;101607.44;;;13.99;100.00
33404;BME280;19751;40.274;18.268;2024-03-17T07:33:23;101614.16;;;14.03;100.00
33404;BME280;19751;40.274;18.268;2024-03-17T07:35:53;101610.31;;;14.12;100.00
33404;BME280;19751;40.274;18.268;2024-03-17T07:38:20;101595.97;;;14.18;100.00
33404;BME280;19751;40.274;18.268;2024-03-17T07:43:23;101605.69;;;14.27;100.00
33404;BME280;19751;40.274;18.268;2024-03-17T07:46:03;101608.19;;;14.29;100.00
33404;BME280;19751;40.274;18.268;2024-03-17T07:48:30;101609.69;;;14.31;100.00
33404;BME280;19751;40.274;18.268;2024-03-17T07:53:32;101613.41;;;14.30;100.00
33404;BME280;19751;40.274;18.268;2024-03-17T07:56:03;101611.34;;;14.32;100.00
33404;BME280;19751;40.274;18.268;2024-03-17T07:58:30;101610.16;;;14.35;100.00
33404;BME280;19751;40.274;18.268;2024-03-17T08:01:02;101616.81;;;14.39;100.00
33404;BME280;19751;40.274;18.268;2024-03-17T08:03:28;101609.59;;;14.46;100.00
33404;BME280;19751;40.274;18.268;2024-03-17T08:05:54;101609.88;;;14.51;100.00
33404;BME280;19751;40.274;18.268;2024-03-17T08:08:20;101613.06;;;14.55;100.00
33404;BME280;19751;40.274;18.268;2024-03-17T08:10:45;101612.66;;;14.58;100.00
33404;BME280;19751;40.274;18.268;2024-03-17T08:13:20;101610.63;;;14.60;100.00
33404;BME280;19751;40.274;18.268;2024-03-17T08:15:46;101620.19;;;14.56;100.00
33404;BME280;19751;40.274;18.268;2024-03-17T08:18:12;101621.38;;;14.53;100.00
33404;BME280;19751;40.274;18.268;2024-03-17T08:20:42;101617.63;;;14.54;100.00
33404;BME280;19751;40.274;18.268;2024-03-17T08:23:09;101623.50;;;14.58;100.00
33404;BME280;19751;40.274;18.268;2024-03-17T08:25:36;101621.47;;;14.60;100.00
33404;BME280;19751;40.274;18.268;2024-03-17T08:28:02;101621.50;;;14.66;100.00
33404;BME280;19751;40.274;18.268;2024-03-17T08:30:28;101613.22;;;14.75;100.00
33404;BME280;19751;40.274;18.268;2024-03-17T08:32:55;101616.63;;;14.83;100.00
33404;BME280;19751;40.274;18.268;2024-03-17T08:35:21;101609.56;;;14.82;100.00
33404;BME280;19751;40.274;18.268;2024-03-17T08:37:46;101610.84;;;14.86;100.00
33404;BME280;19751;40.274;18.268;2024-03-17T08:40:12;101607.16;;;14.94;100.00
33404;BME280;19751;40.274;18.268;2024-03-17T08:42:39;101612.41;;;15.02;100.00
33404;BME280;19751;40.274;18.268;2024-03-17T08:45:05;101614.56;;;15.13;100.00
33404;BME280;19751;40.274;18.268;2024-03-17T08:47:31;101608.56;;;15.18;100.00
33404;BME280;19751;40.274;18.268;2024-03-17T08:49:56;101609.84;;;15.22;100.00
33404;BME280;19751;40.274;18.268;2024-03-17T08:52:23;101619.28;;;15.26;100.00
33404;BME280;19751;40.274;18.268;2024-03-17T08:54:48;101612.81;;;15.27;100.00
33404;BME280;19751;40.274;18.268;2024-03-17T08:57:16;101609.88;;;15.29;100.00
33404;BME280;19751;40.274;18.268;2024-03-17T08:59:42;101619.50;;;15.31;100.00
33404;BME280;19751;40.274;18.268;2024-03-17T09:02:11;101622.00;;;15.33;100.00
33404;BME280;19751;40.274;18.268;2024-03-17T09:04:39;101620.78;;;15.35;100.00
33404;BME280;19751;40.274;18.268;2024-03-17T09:07:04;101619.28;;;15.33;100.00
33404;BME280;19751;40.274;18.268;2024-03-17T09:09:30;101619.50;;;15.31;100.00
33404;BME280;19751;40.274;18.268;2024-03-17T09:11:55;101617.19;;;15.28;100.00
33404;BME280;19751;40.274;18.268;2024-03-17T09:14:20;101624.69;;;15.26;100.00
33404;BME280;19751;40.274;18.268;2024-03-17T09:16:47;101629.47;;;15.24;100.00
33404;BME280;19751;40.274;18.268;2024-03-17T09:19:13;101622.56;;;15.22;100.00
33404;BME280;19751;40.274;18.268;2024-03-17T09:21:38;101622.75;;;15.20;100.00
33404;BME280;19751;40.274;18.268;2024-03-17T09:24:06;101630.75;;;15.28;100.00
33404;BME280;19751;40.274;18.268;2024-03-17T09:26:33;101624.50;;;15.28;100.00
33404;BME280;19751;40.274;18.268;2024-03-17T09:28:59;101625.97;;;15.30;100.00
33404;BME280;19751;40.274;18.268;2024-03-17T09:31:25;101617.84;;;15.37;100.00
33404;BME280;19751;40.274;18.268;2024-03-17T09:33:51;101616.03;;;15.44;100.00
33404;BME280;19751;40.274;18.268;2024-03-17T09:36:16;101621.47;;;15.51;100.00
33404;BME280;19751;40.274;18.268;2024-03-17T09:38:43;101629.22;;;15.54;100.00
33404;BME280;19751;40.274;18.268;2024-03-17T09:41:21;101623.41;;;15.57;100.00
33404;BME280;19751;40.274;18.268;2024-03-17T09:43:57;101632.19;;;15.59;100.00
33404;BME280;19751;40.274;18.268;2024-03-17T09:46:27;101630.72;;;15.56;100.00
33404;BME280;19751;40.274;18.268;2024-03-17T09:48:54;101638.66;;;15.58;100.00
33404;BME280;19751;40.274;18.268;2024-03-17T09:51:24;101633.81;;;15.53;100.00
33404;BME280;19751;40.274;18.268;2024-03-17T09:53:51;101647.34;;;15.47;100.00
33404;BME280;19751;40.274;18.268;2024-03-17T09:56:21;101643.81;;;15.46;100.00
33404;BME280;19751;40.274;18.268;2024-03-17T09:58:48;101635.88;;;15.45;100.00
33404;BME280;19751;40.274;18.268;2024-03-17T10:01:13;101647.13;;;15.41;100.00
33404;BME280;19751;40.274;18.268;2024-03-17T10:03:53;101637.50;;;15.39;100.00
33404;BME280;19751;40.274;18.268;2024-03-17T10:06:23;101637.50;;;15.39;100.00
33404;BME280;19751;40.274;18.268;2024-03-17T10:11:22;101637.31;;;15.40;100.00
33404;BME280;19751;40.274;18.268;2024-03-17T10:14:09;101633.78;;;15.47;100.00
33404;BME280;19751;40.274;18.268;2024-03-17T10:16:36;101640.47;;;15.44;100.00
33404;BME280;19751;40.274;18.268;2024-03-17T10:21:31;101629.59;;;15.44;100.00
33404;BME280;19751;40.274;18.268;2024-03-17T10:24:20;101633.38;;;15.43;100.00
33404;BME280;19751;40.274;18.268;2024-03-17T10:26:47;101641.28;;;15.45;100.00
33404;BME280;19751;40.274;18.268;2024-03-17T10:31:52;101640.69;;;15.49;100.00
33404;BME280;19751;40.274;18.268;2024-03-17T10:34:19;101637.78;;;15.51;100.00
33404;BME280;19751;40.274;18.268;2024-03-17T10:36:46;101634.47;;;15.55;100.00
33404;BME280;19751;40.274;18.268;2024-03-17T10:39:41;101640.59;;;15.64;100.00
33404;BME280;19751;40.274;18.268;2024-03-17T10:42:10;101644.19;;;15.71;100.00
33404;BME280;19751;40.274;18.268;2024-03-17T10:44:40;101644.84;;;15.80;100.00
33404;BME280;19751;40.274;18.268;2024-03-17T10:47:07;101646.34;;;15.82;100.00
33404;BME280;19751;40.274;18.268;2024-03-17T10:49:42;101644.06;;;15.86;100.00
33404;BME280;19751;40.274;18.268;2024-03-17T10:52:16;101647.22;;;15.89;100.00
33404;BME280;19751;40.274;18.268;2024-03-17T10:54:48;101641.97;;;15.88;100.00
33404;BME280;19751;40.274;18.268;2024-03-17T10:59:48;101640.50;;;15.92;100.00
33404;BME280;19751;40.274;18.268;2024-03-17T11:02:33;101647.44;;;15.95;100.00
33404;BME280;19751;40.274;18.268;2024-03-17T11:07:37;101647.88;;;16.05;100.00
33404;BME280;19751;40.274;18.268;2024-03-17T11:10:09;101628.28;;;16.09;100.00
33404;BME280;19751;40.274;18.268;2024-03-17T11:18:28;101656.28;;;16.16;100.00
33404;BME280;19751;40.274;18.268;2024-03-17T11:21:00;101643.53;;;16.17;100.00
33404;BME280;19751;40.274;18.268;2024-03-17T11:23:41;101643.13;;;16.13;100.00
33404;BME280;19751;40.274;18.268;2024-03-17T11:26:07;101642.88;;;16.08;100.00
33404;BME280;19751;40.274;18.268;2024-03-17T11:31:37;101633.91;;;16.14;100.00
33404;BME280;19751;40.274;18.268;2024-03-17T11:34:07;101635.38;;;16.17;100.00
33404;BME280;19751;40.274;18.268;2024-03-17T11:36:50;101637.91;;;16.19;100.00
33404;BME280;19751;40.274;18.268;2024-03-17T11:39:16;101630.19;;;16.22;100.00
33404;BME280;19751;40.274;18.268;2024-03-17T11:41:45;101629.13;;;16.23;100.00
33404;BME280;19751;40.274;18.268;2024-03-17T11:47:04;101630.81;;;16.37;100.00
33404;BME280;19751;40.274;18.268;2024-03-17T11:49:37;101625.81;;;16.41;100.00
33404;BME280;19751;40.274;18.268;2024-03-17T11:54:40;101628.53;;;16.34;100.00
33404;BME280;19751;40.274;18.268;2024-03-17T11:57:10;101608.44;;;16.29;100.00
33404;BME280;19751;40.274;18.268;2024-03-17T11:59:36;101619.53;;;16.27;100.00
33404;BME280;19751;40.274;18.268;2024-03-17T12:04:42;101613.06;;;16.41;100.00
33404;BME280;19751;40.274;18.268;2024-03-17T12:07:21;101605.72;;;16.42;100.00
33404;BME280;19751;40.274;18.268;2024-03-17T12:09:49;101604.91;;;16.41;100.00
33404;BME280;19751;40.274;18.268;2024-03-17T12:14:45;101614.75;;;16.43;100.00
33404;BME280;19751;40.274;18.268;2024-03-17T12:17:12;101598.44;;;16.43;100.00
33404;BME280;19751;40.274;18.268;2024-03-17T12:19:44;101601.56;;;16.39;100.00
33404;BME280;19751;40.274;18.268;2024-03-17T12:22:16;101600.50;;;16.34;100.00
33404;BME280;19751;40.274;18.268;2024-03-17T12:24:43;101606.97;;;16.33;100.00
33404;BME280;19751;40.274;18.268;2024-03-17T12:27:17;101587.75;;;16.34;100.00
33404;BME280;19751;40.274;18.268;2024-03-17T12:29:43;101576.03;;;16.40;100.00
33404;BME280;19751;40.274;18.268;2024-03-17T12:34:42;101579.41;;;16.43;100.00
33404;BME280;19751;40.274;18.268;2024-03-17T12:37:19;101576.03;;;16.40;100.00
33404;BME280;19751;40.274;18.268;2024-03-17T12:39:45;101581.88;;;16.37;100.00
33404;BME280;19751;40.274;18.268;2024-03-17T12:44:57;101582.72;;;16.38;100.00
33404;BME280;19751;40.274;18.268;2024-03-17T12:47:25;101575.00;;;16.35;100.00
33404;BME280;19751;40.274;18.268;2024-03-17T12:55:00;101567.66;;;16.42;100.00
33404;BME280;19751;40.274;18.268;2024-03-17T12:57:45;101566.00;;;16.41;100.00
33404;BME280;19751;40.274;18.268;2024-03-17T13:00:30;101556.38;;;16.32;100.00
33404;BME280;19751;40.274;18.268;2024-03-17T13:05:25;101547.59;;;16.36;100.00
33404;BME280;19751;40.274;18.268;2024-03-17T13:07:52;101538.81;;;16.48;100.00
33404;BME280;19751;40.274;18.268;2024-03-17T13:10:20;101540.94;;;16.59;100.00
33404;BME280;19751;40.274;18.268;2024-03-17T13:12:47;101557.22;;;16.65;100.00
33404;BME280;19751;40.274;18.268;2024-03-17T13:15:17;101533.78;;;16.64;100.00
33404;BME280;19751;40.274;18.268;2024-03-17T13:17:44;101534.63;;;16.58;100.00
33404;BME280;19751;40.274;18.268;2024-03-17T13:20:14;101540.50;;;16.55;100.00
33404;BME280;19751;40.274;18.268;2024-03-17T13:22:46;101533.78;;;16.58;100.00